sensor_id;sensor_type;location;lat;lon;timestamp;P1;durP1;ratioP1;P2;durP2;ratioP2
11090;SDS011;5599;52.210;21.046;2024-02-21T00:00:25;10.57;;;5.17;;
11090;SDS011;5599;52.210;21.046;2024-02-21T00:02:54;12.03;;;5.27;;
11090;SDS011;5599;52.210;21.046;2024-02-21T00:05:35;12.73;;;5.80;;
11090;SDS011;5599;52.210;21.046;2024-02-21T00:08:04;10.43;;;5.07;;
11090;SDS011;5599;52.210;21.046;2024-02-21T00:10:33;10.03;;;5.50;;
11090;SDS011;5599;52.210;21.046;2024-02-21T00:13:03;13.10;;;5.63;;
11090;SDS011;5599;52.210;21.046;2024-02-21T00:15:33;12.70;;;5.60;;
11090;SDS011;5599;52.210;21.046;2024-02-21T00:18:02;14.23;;;5.57;;
11090;SDS011;5599;52.210;21.046;2024-02-21T00:20:32;11.53;;;5.07;;
11090;SDS011;5599;52.210;21.046;2024-02-21T00:23:01;9.60;;;5.63;;
11090;SDS011;5599;52.210;21.046;2024-02-21T00:25:30;12.97;;;5.60;;
11090;SDS011;5599;52.210;21.046;2024-02-21T00:27:59;10.07;;;4.93;;
11090;SDS011;5599;52.210;21.046;2024-02-21T00:30:28;11.33;;;5.07;;
11090;SDS011;5599;52.210;21.046;2024-02-21T00:32:58;15.10;;;6.10;;
11090;SDS011;5599;52.210;21.046;2024-02-21T00:35:27;10.90;;;5.93;;
11090;SDS011;5599;52.210;21.046;2024-02-21T00:37:56;11.57;;;4.83;;
11090;SDS011;5599;52.210;21.046;2024-02-21T00:40:26;14.07;;;5.43;;
11090;SDS011;5599;52.210;21.046;2024-02-21T00:42:55;10.53;;;5.57;;
11090;SDS011;5599;52.210;21.046;2024-02-21T00:45:24;8.70;;;4.93;;
11090;SDS011;5599;52.210;21.046;2024-02-21T00:47:53;11.03;;;5.60;;
11090;SDS011;5599;52.210;21.046;2024-02-21T00:50:23;12.20;;;5.73;;
11090;SDS011;5599;52.210;21.046;2024-02-21T00:52:52;11.97;;;5.53;;
11090;SDS011;5599;52.210;21.046;2024-02-21T00:55:21;9.77;;;5.10;;
11090;SDS011;5599;52.210;21.046;2024-02-21T00:57:50;9.23;;;5.10;;
11090;SDS011;5599;52.210;21.046;2024-02-21T01:00:19;15.03;;;5.10;;
11090;SDS011;5599;52.210;21.046;2024-02-21T01:02:48;13.70;;;6.00;;
11090;SDS011;5599;52.210;21.046;2024-02-21T01:05:19;12.17;;;5.57;;
11090;SDS011;5599;52.210;21.046;2024-02-21T01:07:51;10.73;;;6.07;;
11090;SDS011;5599;52.210;21.046;2024-02-21T01:10:20;14.57;;;6.43;;
11090;SDS011;5599;52.210;21.046;2024-02-21T01:12:49;10.07;;;5.73;;
11090;SDS011;5599;52.210;21.046;2024-02-21T01:15:18;13.00;;;6.80;;
11090;SDS011;5599;52.210;21.046;2024-02-21T01:17:47;11.23;;;6.07;;
11090;SDS011;5599;52.210;21.046;2024-02-21T01:20:21;10.63;;;5.47;;
11090;SDS011;5599;52.210;21.046;2024-02-21T01:22:52;12.30;;;5.87;;
11090;SDS011;5599;52.210;21.046;2024-02-21T01:25:20;10.77;;;5.83;;
11090;SDS011;5599;52.210;21.046;2024-02-21T01:27:49;13.43;;;6.23;;
11090;SDS011;5599;52.210;21.046;2024-02-21T01:30:18;10.13;;;5.87;;
11090;SDS011;5599;52.210;21.046;2024-02-21T01:32:47;13.43;;;6.23;;
11090;SDS011;5599;52.210;21.046;2024-02-21T01:35:16;9.33;;;5.77;;
11090;SDS011;5599;52.210;21.046;2024-02-21T01:37:46;11.03;;;6.13;;
11090;SDS011;5599;52.210;21.046;2024-02-21T01:40:17;11.47;;;6.20;;
11090;SDS011;5599;52.210;21.046;2024-02-21T01:42:46;10.67;;;6.17;;
11090;SDS011;5599;52.210;21.046;2024-02-21T01:45:15;13.33;;;6.13;;
11090;SDS011;5599;52.210;21.046;2024-02-21T01:47:44;9.80;;;6.40;;
11090;SDS011;5599;52.210;21.046;2024-02-21T01:50:14;11.40;;;6.30;;
11090;SDS011;5599;52.210;21.046;2024-02-21T01:52:43;13.53;;;6.60;;
11090;SDS011;5599;52.210;21.046;2024-02-21T01:55:14;14.40;;;7.40;;
11090;SDS011;5599;52.210;21.046;2024-02-21T01:57:45;13.70;;;6.63;;
11090;SDS011;5599;52.210;21.046;2024-02-21T02:00:14;10.20;;;6.50;;
11090;SDS011;5599;52.210;21.046;2024-02-21T02:02:44;10.77;;;6.87;;
11090;SDS011;5599;52.210;21.046;2024-02-21T02:05:14;14.57;;;6.50;;
11090;SDS011;5599;52.210;21.046;2024-02-21T02:07:45;11.57;;;6.60;;
11090;SDS011;5599;52.210;21.046;2024-02-21T02:10:14;15.20;;;7.27;;
11090;SDS011;5599;52.210;21.046;2024-02-21T02:12:44;15.33;;;7.60;;
11090;SDS011;5599;52.210;21.046;2024-02-21T02:15:13;13.13;;;7.87;;
11090;SDS011;5599;52.210;21.046;2024-02-21T02:17:42;14.93;;;7.63;;
11090;SDS011;5599;52.210;21.046;2024-02-21T02:20:11;14.20;;;7.83;;
11090;SDS011;5599;52.210;21.046;2024-02-21T02:22:41;11.27;;;8.07;;
11090;SDS011;5599;52.210;21.046;2024-02-21T02:25:15;13.20;;;7.97;;
11090;SDS011;5599;52.210;21.046;2024-02-21T02:27:44;10.50;;;7.10;;
11090;SDS011;5599;52.210;21.046;2024-02-21T02:30:13;12.07;;;7.40;;
11090;SDS011;5599;52.210;21.046;2024-02-21T02:32:44;16.10;;;7.40;;
11090;SDS011;5599;52.210;21.046;2024-02-21T02:35:14;16.27;;;8.17;;
11090;SDS011;5599;52.210;21.046;2024-02-21T02:37:47;12.37;;;7.87;;
11090;SDS011;5599;52.210;21.046;2024-02-21T02:40:18;11.87;;;7.10;;
11090;SDS011;5599;52.210;21.046;2024-02-21T02:42:48;11.43;;;7.40;;
11090;SDS011;5599;52.210;21.046;2024-02-21T02:45:17;13.90;;;7.70;;
11090;SDS011;5599;52.210;21.046;2024-02-21T02:47:46;16.10;;;8.20;;
11090;SDS011;5599;52.210;21.046;2024-02-21T02:50:15;15.47;;;7.43;;
11090;SDS011;5599;52.210;21.046;2024-02-21T02:52:44;13.33;;;7.40;;
11090;SDS011;5599;52.210;21.046;2024-02-21T02:55:13;13.60;;;7.50;;
11090;SDS011;5599;52.210;21.046;2024-02-21T02:57:43;12.33;;;7.80;;
11090;SDS011;5599;52.210;21.046;2024-02-21T03:00:12;16.30;;;7.83;;
11090;SDS011;5599;52.210;21.046;2024-02-21T03:02:43;16.10;;;7.80;;
11090;SDS011;5599;52.210;21.046;2024-02-21T03:05:13;15.00;;;8.17;;
11090;SDS011;5599;52.210;21.046;2024-02-21T03:07:44;16.00;;;7.87;;
11090;SDS011;5599;52.210;21.046;2024-02-21T03:10:13;11.70;;;7.93;;
11090;SDS011;5599;52.210;21.046;2024-02-21T03:12:46;12.33;;;7.37;;
11090;SDS011;5599;52.210;21.046;2024-02-21T03:15:15;14.20;;;7.37;;
11090;SDS011;5599;52.210;21.046;2024-02-21T03:17:43;14.70;;;7.20;;
11090;SDS011;5599;52.210;21.046;2024-02-21T03:20:12;15.17;;;7.90;;
11090;SDS011;5599;52.210;21.046;2024-02-21T03:22:41;12.50;;;7.67;;
11090;SDS011;5599;52.210;21.046;2024-02-21T03:25:10;12.47;;;8.07;;
11090;SDS011;5599;52.210;21.046;2024-02-21T03:27:41;13.17;;;8.10;;
11090;SDS011;5599;52.210;21.046;2024-02-21T03:30:11;15.73;;;8.40;;
11090;SDS011;5599;52.210;21.046;2024-02-21T03:32:40;12.63;;;8.13;;
11090;SDS011;5599;52.210;21.046;2024-02-21T03:35:09;12.73;;;7.87;;
11090;SDS011;5599;52.210;21.046;2024-02-21T03:37:38;16.23;;;7.50;;
11090;SDS011;5599;52.210;21.046;2024-02-21T03:40:08;15.30;;;8.10;;
11090;SDS011;5599;52.210;21.046;2024-02-21T03:42:37;13.27;;;7.87;;
11090;SDS011;5599;52.210;21.046;2024-02-21T03:45:07;13.20;;;7.50;;
11090;SDS011;5599;52.210;21.046;2024-02-21T03:47:38;16.30;;;7.83;;
11090;SDS011;5599;52.210;21.046;2024-02-21T03:50:07;13.00;;;6.93;;
11090;SDS011;5599;52.210;21.046;2024-02-21T03:52:36;14.57;;;7.23;;
11090;SDS011;5599;52.210;21.046;2024-02-21T03:55:06;15.70;;;7.93;;
11090;SDS011;5599;52.210;21.046;2024-02-21T03:57:35;9.47;;;7.50;;
11090;SDS011;5599;52.210;21.046;2024-02-21T04:00:05;13.67;;;7.60;;
11090;SDS011;5599;52.210;21.046;2024-02-21T04:02:39;21.20;;;8.70;;
11090;SDS011;5599;52.210;21.046;2024-02-21T04:05:08;12.83;;;7.20;;
11090;SDS011;5599;52.210;21.046;2024-02-21T04:07:39;11.47;;;6.70;;
11090;SDS011;5599;52.210;21.046;2024-02-21T04:10:08;11.30;;;6.80;;
11090;SDS011;5599;52.210;21.046;2024-02-21T04:12:37;15.13;;;7.10;;
11090;SDS011;5599;52.210;21.046;2024-02-21T04:15:06;14.50;;;7.63;;
11090;SDS011;5599;52.210;21.046;2024-02-21T04:17:36;13.83;;;7.57;;
11090;SDS011;5599;52.210;21.046;2024-02-21T04:20:13;13.37;;;7.40;;
11090;SDS011;5599;52.210;21.046;2024-02-21T04:22:43;15.17;;;8.33;;
11090;SDS011;5599;52.210;21.046;2024-02-21T04:25:12;11.63;;;7.50;;
11090;SDS011;5599;52.210;21.046;2024-02-21T04:27:41;13.07;;;7.90;;
11090;SDS011;5599;52.210;21.046;2024-02-21T04:30:11;19.60;;;8.13;;
11090;SDS011;5599;52.210;21.046;2024-02-21T04:32:40;12.70;;;7.67;;
11090;SDS011;5599;52.210;21.046;2024-02-21T04:35:10;14.27;;;8.37;;
11090;SDS011;5599;52.210;21.046;2024-02-21T04:37:39;15.37;;;8.30;;
11090;SDS011;5599;52.210;21.046;2024-02-21T04:40:08;14.77;;;8.67;;
11090;SDS011;5599;52.210;21.046;2024-02-21T04:42:38;12.33;;;8.20;;
11090;SDS011;5599;52.210;21.046;2024-02-21T04:45:07;14.33;;;8.40;;
11090;SDS011;5599;52.210;21.046;2024-02-21T04:47:37;12.87;;;9.10;;
11090;SDS011;5599;52.210;21.046;2024-02-21T04:50:06;19.13;;;9.53;;
11090;SDS011;5599;52.210;21.046;2024-02-21T04:52:36;23.30;;;9.60;;
11090;SDS011;5599;52.210;21.046;2024-02-21T04:55:06;15.80;;;9.87;;
11090;SDS011;5599;52.210;21.046;2024-02-21T04:57:35;18.87;;;10.27;;
11090;SDS011;5599;52.210;21.046;2024-02-21T05:00:04;21.47;;;9.97;;
11090;SDS011;5599;52.210;21.046;2024-02-21T05:02:34;17.70;;;10.23;;
11090;SDS011;5599;52.210;21.046;2024-02-21T05:05:03;17.23;;;10.87;;
11090;SDS011;5599;52.210;21.046;2024-02-21T05:07:32;19.23;;;11.20;;
11090;SDS011;5599;52.210;21.046;2024-02-21T05:10:06;17.70;;;11.77;;
11090;SDS011;5599;52.210;21.046;2024-02-21T05:12:36;18.50;;;11.57;;
11090;SDS011;5599;52.210;21.046;2024-02-21T05:15:05;19.53;;;11.30;;
11090;SDS011;5599;52.210;21.046;2024-02-21T05:17:35;19.60;;;10.70;;
11090;SDS011;5599;52.210;21.046;2024-02-21T05:20:04;18.13;;;10.73;;
11090;SDS011;5599;52.210;21.046;2024-02-21T05:22:34;14.67;;;10.43;;
11090;SDS011;5599;52.210;21.046;2024-02-21T05:25:05;14.77;;;10.27;;
11090;SDS011;5599;52.210;21.046;2024-02-21T05:27:35;16.83;;;10.10;;
11090;SDS011;5599;52.210;21.046;2024-02-21T05:30:05;18.63;;;10.70;;
11090;SDS011;5599;52.210;21.046;2024-02-21T05:32:35;14.97;;;9.80;;
11090;SDS011;5599;52.210;21.046;2024-02-21T05:35:04;18.03;;;9.87;;
11090;SDS011;5599;52.210;21.046;2024-02-21T05:37:33;20.97;;;10.23;;
11090;SDS011;5599;52.210;21.046;2024-02-21T05:40:02;16.03;;;10.20;;
11090;SDS011;5599;52.210;21.046;2024-02-21T05:42:32;16.33;;;9.60;;
11090;SDS011;5599;52.210;21.046;2024-02-21T05:45:01;18.17;;;9.73;;
11090;SDS011;5599;52.210;21.046;2024-02-21T05:47:30;14.20;;;9.20;;
11090;SDS011;5599;52.210;21.046;2024-02-21T05:49:59;14.07;;;9.73;;
11090;SDS011;5599;52.210;21.046;2024-02-21T05:52:28;18.47;;;10.47;;
11090;SDS011;5599;52.210;21.046;2024-02-21T05:54:57;13.00;;;9.00;;
11090;SDS011;5599;52.210;21.046;2024-02-21T05:57:25;13.67;;;8.93;;
11090;SDS011;5599;52.210;21.046;2024-02-21T05:59:56;15.73;;;9.63;;
11090;SDS011;5599;52.210;21.046;2024-02-21T06:02:24;14.93;;;9.90;;
11090;SDS011;5599;52.210;21.046;2024-02-21T06:04:53;15.83;;;9.80;;
11090;SDS011;5599;52.210;21.046;2024-02-21T06:07:22;16.80;;;10.23;;
11090;SDS011;5599;52.210;21.046;2024-02-21T06:09:51;14.37;;;9.77;;
11090;SDS011;5599;52.210;21.046;2024-02-21T06:12:20;13.80;;;9.37;;
11090;SDS011;5599;52.210;21.046;2024-02-21T06:14:49;16.33;;;10.50;;
11090;SDS011;5599;52.210;21.046;2024-02-21T06:17:19;15.97;;;10.63;;
11090;SDS011;5599;52.210;21.046;2024-02-21T06:19:48;20.10;;;11.23;;
11090;SDS011;5599;52.210;21.046;2024-02-21T06:22:17;15.20;;;10.10;;
11090;SDS011;5599;52.210;21.046;2024-02-21T06:24:46;17.10;;;11.33;;
11090;SDS011;5599;52.210;21.046;2024-02-21T06:27:15;18.17;;;11.13;;
11090;SDS011;5599;52.210;21.046;2024-02-21T06:29:44;24.17;;;12.23;;
11090;SDS011;5599;52.210;21.046;2024-02-21T06:32:13;18.27;;;10.73;;
11090;SDS011;5599;52.210;21.046;2024-02-21T06:34:43;17.63;;;11.23;;
11090;SDS011;5599;52.210;21.046;2024-02-21T06:37:12;21.13;;;12.03;;
11090;SDS011;5599;52.210;21.046;2024-02-21T06:39:41;17.87;;;11.20;;
11090;SDS011;5599;52.210;21.046;2024-02-21T06:42:10;17.07;;;10.23;;
11090;SDS011;5599;52.210;21.046;2024-02-21T06:44:39;19.07;;;10.87;;
11090;SDS011;5599;52.210;21.046;2024-02-21T06:47:08;21.13;;;11.43;;
11090;SDS011;5599;52.210;21.046;2024-02-21T06:49:37;14.40;;;11.37;;
11090;SDS011;5599;52.210;21.046;2024-02-21T06:52:08;18.87;;;11.50;;
11090;SDS011;5599;52.210;21.046;2024-02-21T06:54:37;16.40;;;12.00;;
11090;SDS011;5599;52.210;21.046;2024-02-21T06:57:06;20.93;;;12.03;;
11090;SDS011;5599;52.210;21.046;2024-02-21T06:59:35;18.40;;;11.77;;
11090;SDS011;5599;52.210;21.046;2024-02-21T07:02:04;21.73;;;12.57;;
11090;SDS011;5599;52.210;21.046;2024-02-21T07:04:34;29.40;;;12.60;;
11090;SDS011;5599;52.210;21.046;2024-02-21T07:07:03;22.03;;;12.93;;
11090;SDS011;5599;52.210;21.046;2024-02-21T07:09:34;20.20;;;12.80;;
11090;SDS011;5599;52.210;21.046;2024-02-21T07:12:03;22.90;;;12.80;;
11090;SDS011;5599;52.210;21.046;2024-02-21T07:14:32;19.23;;;12.37;;
11090;SDS011;5599;52.210;21.046;2024-02-21T07:17:01;20.73;;;13.47;;
11090;SDS011;5599;52.210;21.046;2024-02-21T07:19:30;23.33;;;12.60;;
11090;SDS011;5599;52.210;21.046;2024-02-21T07:21:59;22.77;;;14.20;;
11090;SDS011;5599;52.210;21.046;2024-02-21T07:24:28;24.43;;;13.87;;
11090;SDS011;5599;52.210;21.046;2024-02-21T07:27:00;22.43;;;12.83;;
11090;SDS011;5599;52.210;21.046;2024-02-21T07:29:31;23.07;;;13.43;;
11090;SDS011;5599;52.210;21.046;2024-02-21T07:32:02;21.43;;;13.37;;
11090;SDS011;5599;52.210;21.046;2024-02-21T07:34:31;20.00;;;13.43;;
11090;SDS011;5599;52.210;21.046;2024-02-21T07:37:00;21.37;;;13.07;;
11090;SDS011;5599;52.210;21.046;2024-02-21T07:39:29;23.97;;;13.00;;
11090;SDS011;5599;52.210;21.046;2024-02-21T07:42:00;23.73;;;13.57;;
11090;SDS011;5599;52.210;21.046;2024-02-21T07:44:29;22.17;;;11.73;;
11090;SDS011;5599;52.210;21.046;2024-02-21T07:46:58;19.73;;;12.70;;
11090;SDS011;5599;52.210;21.046;2024-02-21T07:49:28;21.30;;;12.90;;
11090;SDS011;5599;52.210;21.046;2024-02-21T07:51:57;24.37;;;12.40;;
11090;SDS011;5599;52.210;21.046;2024-02-21T07:54:26;22.37;;;13.50;;
11090;SDS011;5599;52.210;21.046;2024-02-21T07:56:57;20.20;;;13.53;;
11090;SDS011;5599;52.210;21.046;2024-02-21T07:59:27;25.03;;;14.60;;
11090;SDS011;5599;52.210;21.046;2024-02-21T08:01:56;24.40;;;14.63;;
11090;SDS011;5599;52.210;21.046;2024-02-21T08:04:25;21.30;;;13.57;;
11090;SDS011;5599;52.210;21.046;2024-02-21T08:06:54;27.30;;;14.40;;
11090;SDS011;5599;52.210;21.046;2024-02-21T08:09:26;22.40;;;14.00;;
11090;SDS011;5599;52.210;21.046;2024-02-21T08:11:55;23.53;;;13.83;;
11090;SDS011;5599;52.210;21.046;2024-02-21T08:14:24;24.10;;;14.87;;
11090;SDS011;5599;52.210;21.046;2024-02-21T08:16:54;24.67;;;14.77;;
11090;SDS011;5599;52.210;21.046;2024-02-21T08:19:23;25.03;;;14.87;;
11090;SDS011;5599;52.210;21.046;2024-02-21T08:21:52;26.00;;;15.07;;
11090;SDS011;5599;52.210;21.046;2024-02-21T08:24:21;26.23;;;15.67;;
11090;SDS011;5599;52.210;21.046;2024-02-21T08:26:50;28.70;;;15.40;;
11090;SDS011;5599;52.210;21.046;2024-02-21T08:29:20;27.30;;;16.40;;
11090;SDS011;5599;52.210;21.046;2024-02-21T08:31:49;25.83;;;15.60;;
11090;SDS011;5599;52.210;21.046;2024-02-21T08:34:19;26.73;;;15.73;;
11090;SDS011;5599;52.210;21.046;2024-02-21T08:36:48;27.83;;;16.00;;
11090;SDS011;5599;52.210;21.046;2024-02-21T08:39:17;28.97;;;15.27;;
11090;SDS011;5599;52.210;21.046;2024-02-21T08:41:46;27.00;;;14.77;;
11090;SDS011;5599;52.210;21.046;2024-02-21T08:44:23;34.97;;;15.50;;
11090;SDS011;5599;52.210;21.046;2024-02-21T08:46:53;26.73;;;15.27;;
11090;SDS011;5599;52.210;21.046;2024-02-21T08:49:25;23.87;;;14.33;;
11090;SDS011;5599;52.210;21.046;2024-02-21T08:52:00;29.27;;;15.53;;
11090;SDS011;5599;52.210;21.046;2024-02-21T08:54:30;31.40;;;16.70;;
11090;SDS011;5599;52.210;21.046;2024-02-21T08:56:59;30.63;;;14.47;;
11090;SDS011;5599;52.210;21.046;2024-02-21T08:59:30;25.67;;;14.80;;
11090;SDS011;5599;52.210;21.046;2024-02-21T09:02:00;24.53;;;15.23;;
11090;SDS011;5599;52.210;21.046;2024-02-21T09:04:31;24.60;;;14.73;;
11090;SDS011;5599;52.210;21.046;2024-02-21T09:07:00;24.07;;;14.57;;
11090;SDS011;5599;52.210;21.046;2024-02-21T09:09:30;22.80;;;13.97;;
11090;SDS011;5599;52.210;21.046;2024-02-21T09:12:00;22.97;;;13.40;;
11090;SDS011;5599;52.210;21.046;2024-02-21T09:14:33;24.37;;;13.63;;
11090;SDS011;5599;52.210;21.046;2024-02-21T09:17:02;19.87;;;12.83;;
11090;SDS011;5599;52.210;21.046;2024-02-21T09:19:32;22.27;;;14.03;;
11090;SDS011;5599;52.210;21.046;2024-02-21T09:22:02;23.33;;;13.03;;
11090;SDS011;5599;52.210;21.046;2024-02-21T09:24:31;25.07;;;13.33;;
11090;SDS011;5599;52.210;21.046;2024-02-21T09:27:00;24.40;;;13.30;;
11090;SDS011;5599;52.210;21.046;2024-02-21T09:29:29;19.87;;;12.57;;
11090;SDS011;5599;52.210;21.046;2024-02-21T09:32:00;21.80;;;11.97;;
11090;SDS011;5599;52.210;21.046;2024-02-21T09:34:30;26.33;;;12.57;;
11090;SDS011;5599;52.210;21.046;2024-02-21T09:37:00;22.93;;;16.20;;
11090;SDS011;5599;52.210;21.046;2024-02-21T09:39:29;33.47;;;20.07;;
11090;SDS011;5599;52.210;21.046;2024-02-21T09:41:59;22.87;;;12.27;;
11090;SDS011;5599;52.210;21.046;2024-02-21T09:44:32;23.00;;;11.90;;
11090;SDS011;5599;52.210;21.046;2024-02-21T09:47:06;20.90;;;10.40;;
11090;SDS011;5599;52.210;21.046;2024-02-21T09:49:41;22.30;;;10.30;;
11090;SDS011;5599;52.210;21.046;2024-02-21T09:52:13;23.30;;;11.77;;
11090;SDS011;5599;52.210;21.046;2024-02-21T09:54:44;18.53;;;10.27;;
11090;SDS011;5599;52.210;21.046;2024-02-21T09:57:13;21.37;;;9.80;;
11090;SDS011;5599;52.210;21.046;2024-02-21T09:59:42;18.47;;;9.50;;
11090;SDS011;5599;52.210;21.046;2024-02-21T10:02:13;19.37;;;10.20;;
11090;SDS011;5599;52.210;21.046;2024-02-21T10:04:42;23.43;;;10.90;;
11090;SDS011;5599;52.210;21.046;2024-02-21T10:07:11;16.90;;;9.40;;
11090;SDS011;5599;52.210;21.046;2024-02-21T10:09:42;15.13;;;8.50;;
11090;SDS011;5599;52.210;21.046;2024-02-21T10:12:14;17.90;;;9.77;;
11090;SDS011;5599;52.210;21.046;2024-02-21T10:14:46;15.97;;;8.00;;
11090;SDS011;5599;52.210;21.046;2024-02-21T10:17:15;18.60;;;8.40;;
11090;SDS011;5599;52.210;21.046;2024-02-21T10:19:46;20.83;;;8.17;;
11090;SDS011;5599;52.210;21.046;2024-02-21T10:22:17;20.97;;;8.03;;
11090;SDS011;5599;52.210;21.046;2024-02-21T10:24:48;13.67;;;7.07;;
11090;SDS011;5599;52.210;21.046;2024-02-21T10:27:17;18.57;;;8.07;;
11090;SDS011;5599;52.210;21.046;2024-02-21T10:29:49;16.53;;;7.83;;
11090;SDS011;5599;52.210;21.046;2024-02-21T10:32:18;16.73;;;8.23;;
11090;SDS011;5599;52.210;21.046;2024-02-21T10:34:47;14.87;;;7.77;;
11090;SDS011;5599;52.210;21.046;2024-02-21T10:37:20;13.60;;;7.97;;
11090;SDS011;5599;52.210;21.046;2024-02-21T10:39:49;14.50;;;7.37;;
11090;SDS011;5599;52.210;21.046;2024-02-21T10:42:18;15.30;;;7.43;;
11090;SDS011;5599;52.210;21.046;2024-02-21T10:44:50;16.83;;;7.77;;
11090;SDS011;5599;52.210;21.046;2024-02-21T10:47:20;16.13;;;8.03;;
11090;SDS011;5599;52.210;21.046;2024-02-21T10:49:56;15.03;;;7.70;;
11090;SDS011;5599;52.210;21.046;2024-02-21T10:52:36;24.73;;;16.87;;
11090;SDS011;5599;52.210;21.046;2024-02-21T10:55:15;18.93;;;9.43;;
11090;SDS011;5599;52.210;21.046;2024-02-21T10:57:50;21.37;;;9.70;;
11090;SDS011;5599;52.210;21.046;2024-02-21T11:00:20;16.43;;;8.57;;
11090;SDS011;5599;52.210;21.046;2024-02-21T11:02:54;20.87;;;10.43;;
11090;SDS011;5599;52.210;21.046;2024-02-21T11:05:23;20.20;;;9.60;;
11090;SDS011;5599;52.210;21.046;2024-02-21T11:07:56;16.80;;;10.10;;
11090;SDS011;5599;52.210;21.046;2024-02-21T11:10:26;22.13;;;12.60;;
11090;SDS011;5599;52.210;21.046;2024-02-21T11:13:04;20.90;;;11.17;;
11090;SDS011;5599;52.210;21.046;2024-02-21T11:15:35;23.30;;;14.73;;
11090;SDS011;5599;52.210;21.046;2024-02-21T11:18:04;20.27;;;10.53;;
11090;SDS011;5599;52.210;21.046;2024-02-21T11:20:34;16.40;;;10.87;;
11090;SDS011;5599;52.210;21.046;2024-02-21T11:23:05;15.10;;;9.57;;
11090;SDS011;5599;52.210;21.046;2024-02-21T11:25:34;19.80;;;10.67;;
11090;SDS011;5599;52.210;21.046;2024-02-21T11:28:03;18.97;;;10.93;;
11090;SDS011;5599;52.210;21.046;2024-02-21T11:30:35;21.17;;;11.50;;
11090;SDS011;5599;52.210;21.046;2024-02-21T11:33:06;17.57;;;10.97;;
11090;SDS011;5599;52.210;21.046;2024-02-21T11:35:35;21.07;;;11.47;;
11090;SDS011;5599;52.210;21.046;2024-02-21T11:38:10;15.63;;;11.27;;
11090;SDS011;5599;52.210;21.046;2024-02-21T11:40:44;18.00;;;11.33;;
11090;SDS011;5599;52.210;21.046;2024-02-21T11:43:15;24.50;;;13.00;;
11090;SDS011;5599;52.210;21.046;2024-02-21T11:45:44;22.53;;;13.00;;
11090;SDS011;5599;52.210;21.046;2024-02-21T11:48:13;20.53;;;12.00;;
11090;SDS011;5599;52.210;21.046;2024-02-21T11:50:42;22.27;;;12.40;;
11090;SDS011;5599;52.210;21.046;2024-02-21T11:53:23;20.37;;;13.43;;
11090;SDS011;5599;52.210;21.046;2024-02-21T11:55:54;22.70;;;18.03;;
11090;SDS011;5599;52.210;21.046;2024-02-21T11:58:24;30.63;;;23.50;;
11090;SDS011;5599;52.210;21.046;2024-02-21T12:00:53;21.13;;;12.67;;
11090;SDS011;5599;52.210;21.046;2024-02-21T12:03:22;19.20;;;12.80;;
11090;SDS011;5599;52.210;21.046;2024-02-21T12:05:52;19.20;;;12.33;;
11090;SDS011;5599;52.210;21.046;2024-02-21T12:08:25;22.37;;;12.73;;
11090;SDS011;5599;52.210;21.046;2024-02-21T12:10:56;21.70;;;12.90;;
11090;SDS011;5599;52.210;21.046;2024-02-21T12:13:25;20.73;;;13.13;;
11090;SDS011;5599;52.210;21.046;2024-02-21T12:15:54;22.20;;;13.30;;
11090;SDS011;5599;52.210;21.046;2024-02-21T12:18:24;26.07;;;15.43;;
11090;SDS011;5599;52.210;21.046;2024-02-21T12:20:53;22.93;;;13.00;;
11090;SDS011;5599;52.210;21.046;2024-02-21T12:23:22;18.53;;;12.03;;
11090;SDS011;5599;52.210;21.046;2024-02-21T12:25:56;22.33;;;13.30;;
11090;SDS011;5599;52.210;21.046;2024-02-21T12:28:27;18.40;;;12.80;;
11090;SDS011;5599;52.210;21.046;2024-02-21T12:30:56;23.97;;;12.37;;
11090;SDS011;5599;52.210;21.046;2024-02-21T12:33:25;22.90;;;13.27;;
11090;SDS011;5599;52.210;21.046;2024-02-21T12:35:54;21.60;;;13.10;;
11090;SDS011;5599;52.210;21.046;2024-02-21T12:38:23;16.80;;;12.67;;
11090;SDS011;5599;52.210;21.046;2024-02-21T12:40:52;29.50;;;17.53;;
11090;SDS011;5599;52.210;21.046;2024-02-21T12:43:22;19.37;;;12.97;;
11090;SDS011;5599;52.210;21.046;2024-02-21T12:45:52;18.20;;;12.57;;
11090;SDS011;5599;52.210;21.046;2024-02-21T12:48:20;20.13;;;12.80;;
11090;SDS011;5599;52.210;21.046;2024-02-21T12:50:50;21.60;;;13.73;;
11090;SDS011;5599;52.210;21.046;2024-02-21T12:53:19;21.03;;;13.97;;
11090;SDS011;5599;52.210;21.046;2024-02-21T12:55:58;25.33;;;13.53;;
11090;SDS011;5599;52.210;21.046;2024-02-21T12:58:29;23.67;;;13.63;;
11090;SDS011;5599;52.210;21.046;2024-02-21T13:00:58;24.27;;;14.10;;
11090;SDS011;5599;52.210;21.046;2024-02-21T13:03:28;25.67;;;14.43;;
11090;SDS011;5599;52.210;21.046;2024-02-21T13:05:59;19.67;;;12.50;;
11090;SDS011;5599;52.210;21.046;2024-02-21T13:08:28;22.83;;;16.00;;
11090;SDS011;5599;52.210;21.046;2024-02-21T13:10:57;19.33;;;12.67;;
11090;SDS011;5599;52.210;21.046;2024-02-21T13:13:26;20.57;;;12.93;;
11090;SDS011;5599;52.210;21.046;2024-02-21T13:15:57;23.40;;;12.60;;
11090;SDS011;5599;52.210;21.046;2024-02-21T13:18:27;20.53;;;12.07;;
11090;SDS011;5599;52.210;21.046;2024-02-21T13:20:56;20.40;;;12.63;;
11090;SDS011;5599;52.210;21.046;2024-02-21T13:23:25;18.43;;;12.27;;
11090;SDS011;5599;52.210;21.046;2024-02-21T13:25:54;19.20;;;11.97;;
11090;SDS011;5599;52.210;21.046;2024-02-21T13:28:22;16.80;;;11.83;;
11090;SDS011;5599;52.210;21.046;2024-02-21T13:30:51;17.80;;;12.13;;
11090;SDS011;5599;52.210;21.046;2024-02-21T13:33:22;19.57;;;12.13;;
11090;SDS011;5599;52.210;21.046;2024-02-21T13:35:51;18.87;;;11.60;;
11090;SDS011;5599;52.210;21.046;2024-02-21T13:38:20;16.77;;;11.23;;
11090;SDS011;5599;52.210;21.046;2024-02-21T13:40:49;18.27;;;11.60;;
11090;SDS011;5599;52.210;21.046;2024-02-21T13:43:18;22.27;;;12.00;;
11090;SDS011;5599;52.210;21.046;2024-02-21T13:45:59;20.00;;;11.50;;
11090;SDS011;5599;52.210;21.046;2024-02-21T13:48:31;18.20;;;11.53;;
11090;SDS011;5599;52.210;21.046;2024-02-21T13:51:00;19.33;;;10.37;;
11090;SDS011;5599;52.210;21.046;2024-02-21T13:53:29;22.17;;;10.97;;
11090;SDS011;5599;52.210;21.046;2024-02-21T13:55:58;16.03;;;10.80;;
11090;SDS011;5599;52.210;21.046;2024-02-21T13:58:28;19.77;;;10.43;;
11090;SDS011;5599;52.210;21.046;2024-02-21T14:00:57;13.90;;;9.87;;
11090;SDS011;5599;52.210;21.046;2024-02-21T14:03:26;20.30;;;13.60;;
11090;SDS011;5599;52.210;21.046;2024-02-21T14:05:56;19.13;;;11.10;;
11090;SDS011;5599;52.210;21.046;2024-02-21T14:08:26;16.83;;;10.40;;
11090;SDS011;5599;52.210;21.046;2024-02-21T14:10:55;15.93;;;10.07;;
11090;SDS011;5599;52.210;21.046;2024-02-21T14:13:26;17.50;;;10.40;;
11090;SDS011;5599;52.210;21.046;2024-02-21T14:15:55;18.13;;;10.03;;
11090;SDS011;5599;52.210;21.046;2024-02-21T14:18:24;16.67;;;9.83;;
11090;SDS011;5599;52.210;21.046;2024-02-21T14:20:54;13.77;;;9.73;;
11090;SDS011;5599;52.210;21.046;2024-02-21T14:23:24;18.20;;;12.23;;
11090;SDS011;5599;52.210;21.046;2024-02-21T14:25:53;36.60;;;32.77;;
11090;SDS011;5599;52.210;21.046;2024-02-21T14:28:22;16.87;;;9.60;;
11090;SDS011;5599;52.210;21.046;2024-02-21T14:30:52;16.93;;;9.80;;
11090;SDS011;5599;52.210;21.046;2024-02-21T14:33:24;20.37;;;10.53;;
11090;SDS011;5599;52.210;21.046;2024-02-21T14:35:53;16.33;;;10.77;;
11090;SDS011;5599;52.210;21.046;2024-02-21T14:38:22;17.93;;;10.70;;
11090;SDS011;5599;52.210;21.046;2024-02-21T14:40:53;16.50;;;10.70;;
11090;SDS011;5599;52.210;21.046;2024-02-21T14:43:22;15.20;;;10.30;;